createdAt,value
2023-04-25T00:00:47.176Z,99537.31
2023-04-25T00:05:49.977Z,99536.88
2023-04-25T00:10:50.788Z,99534.13
2023-04-25T00:15:51.435Z,99535.19
2023-04-25T00:20:53.416Z,99534.50
2023-04-25T00:25:54.013Z,99534.66
2023-04-25T00:30:54.640Z,99535.50
2023-04-25T00:35:57.625Z,99542.56
2023-04-25T00:40:58.623Z,99534.31
2023-04-25T00:45:59.275Z,99535.38
2023-04-25T00:51:01.837Z,99533.88
2023-04-25T00:56:02.502Z,99536.59
2023-04-25T01:01:03.514Z,99526.53
2023-04-25T01:06:06.158Z,99532.06
2023-04-25T01:11:07.045Z,99522.72
2023-04-25T01:16:08.092Z,99524.03
2023-04-25T01:21:11.519Z,99531.13
2023-04-25T01:26:13.895Z,99531.13
2023-04-25T01:31:15.097Z,99534.78
2023-04-25T01:36:17.438Z,99529.69
2023-04-25T01:41:18.951Z,99530.78
2023-04-25T01:46:19.735Z,99530.81
2023-04-25T01:51:21.782Z,99528.34
2023-04-25T01:56:22.670Z,99525.84
2023-04-25T02:01:23.527Z,99520.75
2023-04-25T02:06:43.734Z,99525.22
2023-04-25T02:11:46.168Z,99525.50
2023-04-25T02:17:02.717Z,99522.03
2023-04-25T02:22:06.402Z,99523.09
2023-04-25T02:27:07.395Z,99519.63
2023-04-25T02:32:09.512Z,99518.78
2023-04-25T02:37:11.467Z,99511.34
2023-04-25T02:42:12.172Z,99511.53
2023-04-25T02:47:12.837Z,99525.47
2023-04-25T02:52:15.098Z,99522.19
2023-04-25T02:57:18.624Z,99516.09
2023-04-25T03:02:19.289Z,99522.22
2023-04-25T03:07:21.406Z,99514.44
2023-04-25T03:12:23.218Z,99519.63
2023-04-25T03:17:24.620Z,99512.88
2023-04-25T03:22:26.737Z,99512.13
2023-04-25T03:27:27.734Z,99518.28
2023-04-25T03:32:28.439Z,99517.38
2023-04-25T03:37:30.612Z,99521.81
2023-04-25T03:42:31.401Z,99517.41
2023-04-25T03:47:32.301Z,99506.16
2023-04-25T03:52:34.660Z,99514.94
2023-04-25T03:57:35.462Z,99519.22
2023-04-25T04:02:37.587Z,99515.00
2023-04-25T04:07:41.198Z,99511.59
2023-04-25T04:12:44.372Z,99520.22
2023-04-25T04:17:47.980Z,99524.41
2023-04-25T04:22:50.534Z,99523.81
2023-04-25T04:27:55.495Z,99524.47
2023-04-25T04:33:03.137Z,99533.16
2023-04-25T04:38:05.762Z,99534.16
2023-04-25T04:43:09.856Z,99534.66
2023-04-25T04:48:27.238Z,99543.22
2023-04-25T04:53:49.835Z,99538.31
2023-04-25T04:59:03.843Z,99547.41
2023-04-25T05:04:14.520Z,99557.78
2023-04-25T05:09:28.953Z,99554.97
2023-04-25T05:15:01.837Z,99549.78
2023-04-25T05:20:16.240Z,99555.69
2023-04-25T05:25:36.305Z,99550.25
2023-04-25T05:30:55.543Z,99558.69
2023-04-25T05:36:02.748Z,99542.25
2023-04-25T05:41:05.130Z,99550.19
2023-04-25T05:46:32.416Z,99546.22
2023-04-25T05:51:51.490Z,99554.00
2023-04-25T05:57:08.524Z,99550.66
2023-04-25T06:02:09.245Z,99561.16
2023-04-25T06:07:12.087Z,99559.16
2023-04-25T06:12:14.124Z,99566.91
2023-04-25T06:17:14.842Z,99558.28
2023-04-25T06:22:15.674Z,99574.50
2023-04-25T06:27:17.768Z,99558.88
2023-04-25T06:32:19.087Z,99560.09
2023-04-25T06:37:20.004Z,99560.69
2023-04-25T06:42:22.079Z,99567.84
2023-04-25T06:47:32.911Z,99557.44
2023-04-25T06:52:34.618Z,99556.91
2023-04-25T06:57:37.065Z,99564.44
2023-04-25T07:02:57.779Z,99557.22
2023-04-25T07:07:58.956Z,99558.81
2023-04-25T07:13:01.941Z,99563.97
2023-04-25T07:18:03.129Z,99569.00
2023-04-25T07:23:03.834Z,99570.81
2023-04-25T07:28:06.427Z,99567.03
2023-04-25T07:33:07.785Z,99566.97
2023-04-25T07:38:08.967Z,99578.13
2023-04-25T07:43:13.255Z,99569.59
2023-04-25T07:48:21.695Z,99563.91
2023-04-25T07:53:23.791Z,99575.78
2023-04-25T07:58:34.102Z,99562.63
2023-04-25T08:03:37.349Z,99573.53
2023-04-25T08:08:42.974Z,99569.97
2023-04-25T08:13:48.109Z,99580.69
2023-04-25T08:18:49.268Z,99572.50
2023-04-25T08:23:50.165Z,99570.94
2023-04-25T08:29:03.088Z,99583.72
2023-04-25T08:34:04.015Z,99610.44
2023-04-25T08:39:08.990Z,99598.47
2023-04-25T08:44:21.876Z,99608.22
2023-04-25T08:49:23.046Z,99609.28
2023-04-25T08:54:35.723Z,99599.66
2023-04-25T08:59:41.583Z,99601.78
2023-04-25T09:04:43.452Z,99607.00
2023-04-25T09:09:44.184Z,99614.50
2023-04-25T09:15:05.063Z,99631.59
2023-04-25T09:20:21.362Z,99628.97
2023-04-25T09:25:22.136Z,99635.94
2023-04-25T09:30:33.340Z,99646.09
2023-04-25T09:35:43.077Z,99653.28
2023-04-25T09:40:50.646Z,99653.66
2023-04-25T09:46:01.362Z,99659.00
2023-04-25T09:51:08.686Z,99671.72
2023-04-25T09:56:11.317Z,99672.78
2023-04-25T10:01:14.172Z,99682.13
2023-04-25T10:06:30.698Z,99673.16
2023-04-25T10:11:32.845Z,99671.78
2023-04-25T10:16:35.450Z,99679.34
2023-04-25T10:21:39.103Z,99683.53
2023-04-25T10:26:40.480Z,99672.41
2023-04-25T10:31:48.697Z,99690.63
2023-04-25T10:36:54.014Z,99683.97
2023-04-25T10:41:57.189Z,99694.34
2023-04-25T10:47:00.859Z,99684.97
2023-04-25T10:52:19.767Z,99688.69
2023-04-25T10:57:31.530Z,99694.03
2023-04-25T11:02:33.935Z,99703.72
2023-04-25T11:07:39.526Z,99708.06
2023-04-25T11:12:40.355Z,99713.06
2023-04-25T11:17:42.529Z,99719.13
2023-04-25T11:22:46.006Z,99727.28
2023-04-25T11:27:53.233Z,99750.09
2023-04-25T11:32:55.905Z,99752.44
2023-04-25T11:37:56.731Z,99762.22
2023-04-25T11:42:57.412Z,99760.50
2023-04-25T11:48:00.720Z,99765.28
2023-04-25T11:53:01.560Z,99753.47
2023-04-25T11:58:03.254Z,99756.91
2023-04-25T12:03:05.819Z,99771.16
2023-04-25T12:08:13.912Z,99767.56
2023-04-25T12:13:22.690Z,99758.53
2023-04-25T12:18:26.234Z,99769.81
2023-04-25T12:23:28.766Z,99763.16
2023-04-25T12:28:29.626Z,99777.00
2023-04-25T12:33:33.147Z,99760.91
2023-04-25T12:38:38.329Z,99758.75
2023-04-25T12:43:39.076Z,99760.31
2023-04-25T12:48:41.082Z,99764.28
2023-04-25T12:53:41.783Z,99791.25
2023-04-25T12:58:44.709Z,99778.13
2023-04-25T13:03:46.987Z,99780.53
2023-04-25T13:08:48.377Z,99778.34
2023-04-25T13:13:49.231Z,99782.50
2023-04-25T13:18:51.338Z,99795.25
2023-04-25T13:23:52.416Z,99800.75
2023-04-25T13:28:53.708Z,99800.88
2023-04-25T13:33:55.748Z,99813.78
2023-04-25T13:38:57.192Z,99822.69
2023-04-25T13:43:58.040Z,99818.25
2023-04-25T13:49:09.991Z,99826.31
2023-04-25T13:54:13.560Z,99822.19
2023-04-25T13:59:14.282Z,99833.44
2023-04-25T14:04:16.392Z,99843.19
2023-04-25T14:09:17.231Z,99836.34
2023-04-25T14:14:17.999Z,99845.03
2023-04-25T14:19:22.134Z,99835.13
2023-04-25T14:24:23.142Z,99839.00
2023-04-25T14:29:23.980Z,99842.31
2023-04-25T14:34:26.117Z,99840.75
2023-04-25T14:39:26.831Z,99837.81
2023-04-25T14:44:27.503Z,99838.03
2023-04-25T14:49:30.071Z,99838.19
2023-04-25T14:54:30.772Z,99842.31
2023-04-25T14:59:31.408Z,99849.88
2023-04-25T15:04:33.630Z,99860.28
2023-04-25T15:09:34.385Z,99859.53
2023-04-25T15:14:35.482Z,99862.38
2023-04-25T15:19:37.651Z,99865.81
2023-04-25T15:24:38.433Z,99876.34
2023-04-25T15:29:39.086Z,99880.84
2023-04-25T15:34:41.133Z,99879.28
2023-04-25T15:39:41.900Z,99888.19
2023-04-25T15:44:42.580Z,99892.84
2023-04-25T15:49:45.606Z,99884.09
2023-04-25T15:54:46.254Z,99889.53
2023-04-25T15:59:47.182Z,99894.66
2023-04-25T16:04:49.994Z,99880.69
2023-04-25T16:09:50.718Z,99880.66
2023-04-25T16:14:52.541Z,99886.31
2023-04-25T16:19:55.128Z,99878.03
2023-04-25T16:24:55.953Z,99886.88
2023-04-25T16:29:56.634Z,99882.88
2023-04-25T16:34:59.082Z,99896.47
2023-04-25T16:39:59.892Z,99892.06
2023-04-25T16:45:00.612Z,99892.94
2023-04-25T16:50:03.066Z,99902.38
2023-04-25T16:55:03.771Z,99907.13
2023-04-25T17:00:05.682Z,99911.69
2023-04-25T17:05:08.794Z,99921.06
2023-04-25T17:10:10.349Z,99926.44
2023-04-25T17:15:11.753Z,99922.53
2023-04-25T17:20:14.993Z,99938.16
2023-04-25T17:25:15.730Z,99935.81
2023-04-25T17:30:17.328Z,99945.88
2023-04-25T17:35:19.614Z,99942.31
2023-04-25T17:40:21.302Z,99956.72
2023-04-25T17:45:22.131Z,99959.19
2023-04-25T17:50:24.163Z,99968.81
2023-04-25T17:55:25.001Z,99971.66
2023-04-25T18:00:25.873Z,99979.66
2023-04-25T18:05:29.235Z,99988.41
2023-04-25T18:10:31.754Z,99986.84
2023-04-25T18:15:32.676Z,99993.72
2023-04-25T18:20:34.743Z,99999.88
2023-04-25T18:25:35.720Z,100007.59
2023-04-25T18:30:38.031Z,100009.41
2023-04-25T18:35:45.111Z,100008.63
2023-04-25T18:41:00.038Z,100017.34
2023-04-25T18:46:11.205Z,100027.03
2023-04-25T18:51:13.400Z,100049.69
2023-04-25T18:56:15.072Z,100047.38
2023-04-25T19:01:16.047Z,100048.41
2023-04-25T19:06:18.307Z,100062.31
2023-04-25T19:11:21.054Z,100061.63
2023-04-25T19:16:22.444Z,100055.69
2023-04-25T19:21:24.581Z,100065.31
2023-04-25T19:26:25.625Z,100058.44
2023-04-25T19:31:27.603Z,100068.81
2023-04-25T19:36:29.697Z,100069.84
2023-04-25T19:41:31.005Z,100072.41
2023-04-25T19:46:32.283Z,100073.34
2023-04-25T19:51:34.591Z,100075.97
2023-04-25T19:56:35.550Z,100083.03
2023-04-25T20:01:36.426Z,100084.78
2023-04-25T20:06:38.494Z,100086.63
2023-04-25T20:11:39.162Z,100089.22
2023-04-25T20:16:40.058Z,100091.84
2023-04-25T20:21:43.009Z,100096.22
2023-04-25T20:26:43.874Z,100103.19
2023-04-25T20:31:44.561Z,100113.53
2023-04-25T20:36:46.683Z,100116.97
2023-04-25T20:41:47.534Z,100116.13
2023-04-25T20:46:48.239Z,100120.44
2023-04-25T20:51:50.252Z,100124.81
2023-04-25T20:56:51.003Z,100116.19
2023-04-25T21:01:51.737Z,100124.81
2023-04-25T21:06:53.742Z,100132.63
2023-04-25T21:11:54.381Z,100130.06
2023-04-25T21:16:55.336Z,100135.22
2023-04-25T21:21:57.414Z,100141.28
2023-04-25T21:26:58.078Z,100137.84
2023-04-25T21:31:58.768Z,100144.75
2023-04-25T21:37:00.774Z,100138.72
2023-04-25T21:42:03.197Z,100136.16
2023-04-25T21:47:04.639Z,100137.88
2023-04-25T21:52:06.920Z,100136.13
2023-04-25T21:57:07.567Z,100143.91
2023-04-25T22:02:08.390Z,100147.31
2023-04-25T22:07:11.046Z,100151.63
2023-04-25T22:12:12.502Z,100161.94
2023-04-25T22:17:13.144Z,100160.19
2023-04-25T22:22:15.189Z,100169.63
2023-04-25T22:27:15.865Z,100162.72
2023-04-25T22:32:16.639Z,100180.03
2023-04-25T22:37:18.669Z,100180.97
2023-04-25T22:42:19.376Z,100187.00
2023-04-25T22:47:21.654Z,100185.25
2023-04-25T22:52:23.623Z,100204.22
2023-04-25T22:57:24.319Z,100200.75
2023-04-25T23:02:25.821Z,100206.81
2023-04-25T23:07:29.217Z,100202.56
2023-04-25T23:12:29.884Z,100204.34
2023-04-25T23:17:30.556Z,100212.06
2023-04-25T23:22:32.554Z,100209.47
2023-04-25T23:27:33.198Z,100215.50
2023-04-25T23:32:33.965Z,100228.50
2023-04-25T23:37:37.139Z,100225.03
2023-04-25T23:42:38.164Z,100235.41
2023-04-25T23:47:38.961Z,100230.25
2023-04-25T23:52:41.055Z,100236.25
2023-04-25T23:57:44.234Z,100244.03
